TOM2LV LGKR-EGFF
Flight info
| Callsign | TOM2LV |
|---|---|
| Flight time | N/A |
| Altitude | 32000 |
| Route | OLGAT DCT CRAYE/N0450F360 DCT GISAM DCT ORAKA DCT SPL DCT ZDA DCT PEVAL DCT BADOP DCT MOBDO DCT SOTOV DCT KPT DCT TEDGO DCT LIRSU DCT DENUT L610 KOPUL Q63 ICTAM |
| Aircraft | B738/M-SDFGHIJ1RWXYZ/LB1 |
Departure
| Time | 2026-05-04 13:00 |
|---|---|
| Airport | Corfu Ioannis Kapodistrias International Airport (LGKR) |
Arrival
| Time | N/A |
|---|---|
| Airport | Cardiff International Airport (EGFF) |
| Time | Latitude | Longitude | Altitude | Speed | Heading |
|---|---|---|---|---|---|
| 2026-05-04 12:28 | 39.60832 | 19.91319 | 17 ft | 0 kts | 79° |
| 2026-05-04 12:52 | 39.60832 | 19.91317 | 17 ft | 2 kts | 79° |
| 2026-05-04 12:53 | 39.60827 | 19.91284 | 18 ft | 4 kts | 79° |
| 2026-05-04 12:53 | 39.60821 | 19.91250 | 17 ft | 4 kts | 71° |
| 2026-05-04 12:53 | 39.60810 | 19.91219 | 17 ft | 4 kts | 53° |
| 2026-05-04 12:53 | 39.60792 | 19.91198 | 17 ft | 4 kts | 12° |
| 2026-05-04 12:54 | 39.60779 | 19.91197 | 19 ft | 1 kts | 348° |
| 2026-05-04 12:54 | 39.60777 | 19.91198 | 19 ft | 0 kts | 348° |
| 2026-05-04 12:56 | 39.60789 | 19.91195 | 17 ft | 5 kts | 348° |
| 2026-05-04 12:57 | 39.60843 | 19.91180 | 17 ft | 11 kts | 348° |
| 2026-05-04 12:57 | 39.60941 | 19.91153 | 18 ft | 16 kts | 348° |
| 2026-05-04 12:57 | 39.61045 | 19.91126 | 18 ft | 14 kts | 348° |
| 2026-05-04 12:57 | 39.61139 | 19.91101 | 18 ft | 13 kts | 348° |
| 2026-05-04 12:58 | 39.61211 | 19.91059 | 19 ft | 11 kts | 302° |
| 2026-05-04 12:58 | 39.61231 | 19.90969 | 20 ft | 8 kts | 257° |
| 2026-05-04 12:58 | 39.61190 | 19.90956 | 20 ft | 2 kts | 169° |
| 2026-05-04 12:58 | 39.61189 | 19.90956 | 20 ft | 0 kts | 169° |
| 2026-05-04 12:59 | 39.61170 | 19.90961 | 20 ft | 20 kts | 169° |
| 2026-05-04 12:59 | 39.60766 | 19.91066 | 18 ft | 96 kts | 168° |
| 2026-05-04 12:59 | 39.59890 | 19.91290 | 24 ft | 158 kts | 169° |
| 2026-05-04 12:59 | 39.58732 | 19.91579 | 555 ft | 171 kts | 169° |
| 2026-05-04 13:00 | 39.57627 | 19.92131 | 1337 ft | 174 kts | 138° |
| 2026-05-04 13:00 | 39.57088 | 19.93505 | 1917 ft | 178 kts | 91° |
| 2026-05-04 13:00 | 39.57498 | 19.94992 | 2450 ft | 181 kts | 44° |
| 2026-05-04 13:00 | 39.58580 | 19.95761 | 3068 ft | 182 kts | 6° |
| 2026-05-04 13:01 | 39.59814 | 19.95469 | 3670 ft | 183 kts | 329° |
| 2026-05-04 13:01 | 39.60601 | 19.94206 | 4344 ft | 186 kts | 289° |
| 2026-05-04 13:01 | 39.60822 | 19.92526 | 4948 ft | 195 kts | 272° |
| 2026-05-04 13:01 | 39.60680 | 19.90706 | 5347 ft | 212 kts | 259° |
| 2026-05-04 13:02 | 39.60223 | 19.88803 | 5538 ft | 233 kts | 252° |
| 2026-05-04 13:02 | 39.59691 | 19.86733 | 5744 ft | 251 kts | 254° |
| 2026-05-04 13:02 | 39.59139 | 19.84489 | 5961 ft | 271 kts | 255° |
| 2026-05-04 13:02 | 39.58989 | 19.82058 | 6508 ft | 272 kts | 286° |
| 2026-05-04 13:03 | 39.59878 | 19.79966 | 7233 ft | 266 kts | 319° |
| 2026-05-04 13:03 | 39.61423 | 19.78674 | 7952 ft | 266 kts | 332° |
| 2026-05-04 13:03 | 39.62999 | 19.77439 | 8646 ft | 268 kts | 329° |
| 2026-05-04 13:03 | 39.64579 | 19.76131 | 9379 ft | 270 kts | 329° |
| 2026-05-04 13:04 | 39.66159 | 19.74802 | 10114 ft | 271 kts | 329° |
| 2026-05-04 13:04 | 39.67766 | 19.73443 | 10548 ft | 284 kts | 328° |
| 2026-05-04 13:04 | 39.69483 | 19.71991 | 10691 ft | 304 kts | 328° |
| 2026-05-04 13:04 | 39.71314 | 19.70439 | 10850 ft | 324 kts | 328° |
| 2026-05-04 13:05 | 39.73252 | 19.68792 | 11100 ft | 339 kts | 328° |
| 2026-05-04 13:05 | 39.75245 | 19.67093 | 11564 ft | 345 kts | 328° |
| 2026-05-04 13:05 | 39.77236 | 19.65394 | 12181 ft | 347 kts | 328° |
| 2026-05-04 13:05 | 39.79256 | 19.63666 | 12837 ft | 348 kts | 328° |
| 2026-05-04 13:06 | 39.81291 | 19.61925 | 13457 ft | 350 kts | 328° |
| 2026-05-04 13:06 | 39.83336 | 19.60175 | 14031 ft | 353 kts | 328° |
| 2026-05-04 13:06 | 39.85395 | 19.58412 | 14564 ft | 355 kts | 328° |
| 2026-05-04 13:06 | 39.87463 | 19.56641 | 15136 ft | 356 kts | 328° |
| 2026-05-04 13:07 | 39.89543 | 19.54858 | 15684 ft | 358 kts | 328° |
| 2026-05-04 13:07 | 39.91627 | 19.53070 | 16205 ft | 360 kts | 328° |
| 2026-05-04 13:07 | 39.93723 | 19.51271 | 16724 ft | 362 kts | 328° |
| 2026-05-04 13:07 | 39.95829 | 19.49461 | 17235 ft | 364 kts | 328° |
| 2026-05-04 13:08 | 39.97946 | 19.47641 | 17746 ft | 366 kts | 328° |
| 2026-05-04 13:08 | 40.00055 | 19.45827 | 18237 ft | 368 kts | 328° |
| 2026-05-04 13:08 | 40.02197 | 19.43982 | 18682 ft | 370 kts | 328° |
| 2026-05-04 13:08 | 40.04351 | 19.42127 | 19094 ft | 372 kts | 328° |
| 2026-05-04 13:09 | 40.06516 | 19.40259 | 19501 ft | 374 kts | 328° |
| 2026-05-04 13:09 | 40.08692 | 19.38381 | 19908 ft | 376 kts | 328° |
| 2026-05-04 13:09 | 40.10889 | 19.36483 | 20310 ft | 378 kts | 328° |
| 2026-05-04 13:09 | 40.13092 | 19.34580 | 20708 ft | 380 kts | 328° |
| 2026-05-04 13:10 | 40.15303 | 19.32667 | 21086 ft | 382 kts | 328° |
| 2026-05-04 13:10 | 40.17536 | 19.30733 | 21457 ft | 385 kts | 328° |
| 2026-05-04 13:10 | 40.19745 | 19.28820 | 21820 ft | 386 kts | 328° |
| 2026-05-04 13:10 | 40.21991 | 19.26872 | 22176 ft | 389 kts | 328° |
| 2026-05-04 13:11 | 40.24253 | 19.24909 | 22535 ft | 390 kts | 328° |
| 2026-05-04 13:11 | 40.26523 | 19.22937 | 22878 ft | 392 kts | 328° |
| 2026-05-04 13:11 | 40.28811 | 19.20949 | 23012 ft | 396 kts | 328° |
| 2026-05-04 13:11 | 40.31112 | 19.18947 | 23016 ft | 397 kts | 328° |
| 2026-05-04 13:12 | 40.33407 | 19.16949 | 23002 ft | 394 kts | 328° |
| 2026-05-04 13:12 | 40.35690 | 19.14958 | 23017 ft | 394 kts | 328° |
| 2026-05-04 13:12 | 40.37960 | 19.12979 | 23020 ft | 400 kts | 328° |
| 2026-05-04 13:12 | 40.40295 | 19.10942 | 23031 ft | 406 kts | 328° |
| 2026-05-04 13:13 | 40.42651 | 19.08884 | 23022 ft | 407 kts | 328° |
| 2026-05-04 13:13 | 40.45000 | 19.06830 | 23018 ft | 405 kts | 328° |
| 2026-05-04 13:13 | 40.47360 | 19.04764 | 23196 ft | 408 kts | 328° |
| 2026-05-04 13:13 | 40.49727 | 19.02690 | 23555 ft | 409 kts | 328° |
| 2026-05-04 13:14 | 40.52100 | 19.00610 | 23885 ft | 409 kts | 328° |
| 2026-05-04 13:14 | 40.54472 | 18.98529 | 24147 ft | 410 kts | 328° |
| 2026-05-04 13:14 | 40.56823 | 18.96464 | 24403 ft | 411 kts | 328° |
| 2026-05-04 13:14 | 40.59209 | 18.94367 | 24649 ft | 413 kts | 327° |
| 2026-05-04 13:15 | 40.61605 | 18.92260 | 24900 ft | 414 kts | 327° |
| 2026-05-04 13:15 | 40.64011 | 18.90141 | 25144 ft | 415 kts | 327° |
| 2026-05-04 13:15 | 40.66416 | 18.88022 | 25380 ft | 416 kts | 327° |
| 2026-05-04 13:15 | 40.68828 | 18.85894 | 25603 ft | 418 kts | 327° |
| 2026-05-04 13:16 | 40.71216 | 18.83786 | 25820 ft | 419 kts | 327° |
| 2026-05-04 13:16 | 40.73639 | 18.81646 | 26037 ft | 420 kts | 327° |
| 2026-05-04 13:16 | 40.76070 | 18.79496 | 26255 ft | 421 kts | 327° |
| 2026-05-04 13:16 | 40.78506 | 18.77340 | 26459 ft | 422 kts | 327° |
| 2026-05-04 13:17 | 40.80954 | 18.75171 | 26660 ft | 423 kts | 327° |
| 2026-05-04 13:17 | 40.83403 | 18.73000 | 26849 ft | 424 kts | 327° |
| 2026-05-04 13:17 | 40.85857 | 18.70821 | 27041 ft | 425 kts | 327° |
| 2026-05-04 13:17 | 40.88321 | 18.68632 | 27231 ft | 426 kts | 327° |
| 2026-05-04 13:18 | 40.90784 | 18.66442 | 27414 ft | 427 kts | 327° |
| 2026-05-04 13:18 | 40.93226 | 18.64269 | 27586 ft | 429 kts | 327° |
| 2026-05-04 13:18 | 40.95704 | 18.62061 | 27756 ft | 430 kts | 327° |
| 2026-05-04 13:18 | 40.98190 | 18.59845 | 27932 ft | 430 kts | 327° |
| 2026-05-04 13:19 | 41.00672 | 18.57630 | 28173 ft | 430 kts | 327° |
| 2026-05-04 13:19 | 41.03147 | 18.55419 | 28462 ft | 428 kts | 327° |
| 2026-05-04 13:19 | 41.05615 | 18.53212 | 28732 ft | 427 kts | 326° |
| 2026-05-04 13:19 | 41.08074 | 18.51011 | 28955 ft | 426 kts | 326° |
| 2026-05-04 13:20 | 41.10530 | 18.48812 | 29172 ft | 426 kts | 326° |
| 2026-05-04 13:20 | 41.12987 | 18.46608 | 29422 ft | 425 kts | 326° |
| 2026-05-04 13:20 | 41.15438 | 18.44409 | 29675 ft | 424 kts | 326° |
| 2026-05-04 13:20 | 41.17878 | 18.42218 | 29925 ft | 423 kts | 326° |
| 2026-05-04 13:21 | 41.20286 | 18.40053 | 30138 ft | 423 kts | 326° |
| 2026-05-04 13:21 | 41.22718 | 18.37864 | 30326 ft | 422 kts | 326° |
| 2026-05-04 13:21 | 41.25146 | 18.35678 | 30520 ft | 421 kts | 326° |
| 2026-05-04 13:21 | 41.27578 | 18.33486 | 30701 ft | 421 kts | 326° |
| 2026-05-04 13:22 | 41.29998 | 18.31301 | 30873 ft | 420 kts | 326° |
| 2026-05-04 13:22 | 41.32417 | 18.29117 | 31044 ft | 420 kts | 326° |
| 2026-05-04 13:22 | 41.34838 | 18.26928 | 31221 ft | 419 kts | 326° |
| 2026-05-04 13:22 | 41.37220 | 18.24772 | 31382 ft | 419 kts | 326° |
| 2026-05-04 13:23 | 41.39628 | 18.22592 | 31539 ft | 419 kts | 326° |
| 2026-05-04 13:23 | 41.42041 | 18.20404 | 31705 ft | 418 kts | 326° |
| 2026-05-04 13:23 | 41.44445 | 18.18223 | 31864 ft | 418 kts | 326° |
| 2026-05-04 13:23 | 41.46844 | 18.16044 | 32021 ft | 417 kts | 326° |
| 2026-05-04 13:24 | 41.49247 | 18.13861 | 32175 ft | 417 kts | 326° |
| 2026-05-04 13:24 | 41.51645 | 18.11690 | 32316 ft | 417 kts | 326° |
| 2026-05-04 13:24 | 41.54059 | 18.09545 | 32467 ft | 416 kts | 326° |
| 2026-05-04 13:25 | 41.58879 | 18.05303 | 32762 ft | 415 kts | 326° |
| 2026-05-04 13:25 | 41.61292 | 18.03175 | 32914 ft | 415 kts | 326° |
| 2026-05-04 13:25 | 41.63699 | 18.01048 | 33034 ft | 415 kts | 326° |
| 2026-05-04 13:25 | 41.66103 | 17.98917 | 33164 ft | 415 kts | 326° |
| 2026-05-04 13:26 | 41.68506 | 17.96784 | 33304 ft | 414 kts | 326° |
| 2026-05-04 13:26 | 41.70908 | 17.94649 | 33449 ft | 414 kts | 326° |
| 2026-05-04 13:26 | 41.73304 | 17.92517 | 33572 ft | 413 kts | 326° |
| 2026-05-04 13:26 | 41.75698 | 17.90385 | 33683 ft | 413 kts | 326° |
| 2026-05-04 13:27 | 41.78091 | 17.88251 | 33804 ft | 413 kts | 326° |
| 2026-05-04 13:27 | 41.80481 | 17.86118 | 33938 ft | 413 kts | 326° |
| 2026-05-04 13:27 | 41.82877 | 17.83978 | 34056 ft | 412 kts | 326° |
| 2026-05-04 13:27 | 41.85263 | 17.81845 | 34159 ft | 412 kts | 326° |
| 2026-05-04 13:28 | 41.90040 | 17.77570 | 34309 ft | 413 kts | 326° |
| 2026-05-04 13:28 | 41.94823 | 17.73289 | 34475 ft | 413 kts | 326° |
| 2026-05-04 13:29 | 41.99612 | 17.69011 | 34619 ft | 414 kts | 326° |
| 2026-05-04 13:29 | 42.04406 | 17.64720 | 34772 ft | 414 kts | 326° |
| 2026-05-04 13:30 | 42.09168 | 17.60449 | 34907 ft | 414 kts | 326° |
| 2026-05-04 13:30 | 42.13964 | 17.56137 | 35047 ft | 414 kts | 326° |
| 2026-05-04 13:31 | 42.18767 | 17.51811 | 35175 ft | 415 kts | 326° |
| 2026-05-04 13:31 | 42.23565 | 17.47482 | 35300 ft | 415 kts | 326° |
| 2026-05-04 13:32 | 42.27554 | 17.43876 | 35405 ft | 415 kts | 325° |
| 2026-05-04 13:32 | 42.32357 | 17.39527 | 35524 ft | 416 kts | 325° |
| 2026-05-04 13:33 | 42.37173 | 17.35159 | 35649 ft | 416 kts | 325° |
| 2026-05-04 13:33 | 42.41980 | 17.30789 | 35754 ft | 416 kts | 325° |
| 2026-05-04 13:34 | 42.46794 | 17.26406 | 35870 ft | 416 kts | 325° |
| 2026-05-04 13:34 | 42.51598 | 17.22023 | 36003 ft | 415 kts | 325° |
| 2026-05-04 13:35 | 42.58745 | 17.15484 | 36117 ft | 414 kts | 325° |
| 2026-05-04 13:36 | 42.63532 | 17.11087 | 36122 ft | 415 kts | 325° |
| 2026-05-04 13:36 | 42.68320 | 17.06682 | 36119 ft | 416 kts | 325° |
| 2026-05-04 13:37 | 42.73112 | 17.02265 | 36116 ft | 416 kts | 325° |
| 2026-05-04 13:37 | 42.77881 | 16.97861 | 36118 ft | 417 kts | 325° |
| 2026-05-04 13:38 | 42.82685 | 16.93416 | 36118 ft | 418 kts | 325° |
| 2026-05-04 13:38 | 42.87498 | 16.88954 | 36116 ft | 418 kts | 325° |
| 2026-05-04 13:39 | 42.92287 | 16.84506 | 36112 ft | 419 kts | 325° |
| 2026-05-04 13:39 | 42.97108 | 16.80019 | 36120 ft | 420 kts | 325° |
| 2026-05-04 13:40 | 43.01943 | 16.75511 | 36111 ft | 420 kts | 324° |
| 2026-05-04 13:40 | 43.06783 | 16.70989 | 36112 ft | 421 kts | 324° |
| 2026-05-04 13:41 | 43.11620 | 16.66462 | 36114 ft | 421 kts | 324° |
| 2026-05-04 13:41 | 43.16435 | 16.61945 | 36110 ft | 422 kts | 324° |
| 2026-05-04 13:42 | 43.23724 | 16.55092 | 36115 ft | 423 kts | 324° |
| 2026-05-04 13:42 | 43.28580 | 16.50516 | 36120 ft | 423 kts | 324° |
| 2026-05-04 13:43 | 43.33406 | 16.45958 | 36113 ft | 423 kts | 324° |
| 2026-05-04 13:43 | 43.38260 | 16.41365 | 36118 ft | 423 kts | 324° |
| 2026-05-04 13:44 | 43.43110 | 16.36765 | 36130 ft | 423 kts | 324° |
| 2026-05-04 13:44 | 43.47952 | 16.32166 | 36129 ft | 423 kts | 324° |
| 2026-05-04 13:45 | 43.52267 | 16.26720 | 36140 ft | 420 kts | 311° |
| 2026-05-04 13:45 | 43.56117 | 16.20636 | 36130 ft | 421 kts | 311° |
| 2026-05-04 13:46 | 43.59959 | 16.14597 | 36127 ft | 421 kts | 311° |
| 2026-05-04 13:46 | 43.63842 | 16.08527 | 36128 ft | 422 kts | 311° |
| 2026-05-04 13:47 | 43.67738 | 16.02444 | 36120 ft | 423 kts | 311° |
| 2026-05-04 13:47 | 43.71630 | 15.96356 | 36123 ft | 423 kts | 311° |
| 2026-05-04 13:48 | 43.75525 | 15.90247 | 36117 ft | 423 kts | 311° |
| 2026-05-04 13:48 | 43.79398 | 15.84161 | 36119 ft | 423 kts | 311° |
| 2026-05-04 13:49 | 43.83296 | 15.78022 | 36120 ft | 424 kts | 310° |
| 2026-05-04 13:49 | 43.87187 | 15.71880 | 36122 ft | 424 kts | 310° |
| 2026-05-04 13:50 | 43.91087 | 15.65711 | 36118 ft | 425 kts | 310° |
| 2026-05-04 13:50 | 43.94985 | 15.59532 | 36124 ft | 426 kts | 310° |
| 2026-05-04 13:51 | 43.98860 | 15.53376 | 36124 ft | 426 kts | 310° |
| 2026-05-04 13:51 | 44.02764 | 15.47159 | 36124 ft | 427 kts | 310° |
| 2026-05-04 13:52 | 44.08634 | 15.37789 | 36131 ft | 428 kts | 310° |
| 2026-05-04 13:53 | 44.12469 | 15.31517 | 36131 ft | 428 kts | 309° |
| 2026-05-04 13:53 | 44.16264 | 15.25099 | 36132 ft | 429 kts | 308° |
| 2026-05-04 13:54 | 44.21945 | 15.15465 | 36129 ft | 429 kts | 308° |
| 2026-05-04 13:55 | 44.27647 | 15.05805 | 36121 ft | 430 kts | 308° |
| 2026-05-04 13:55 | 44.33322 | 14.96170 | 36115 ft | 430 kts | 308° |
| 2026-05-04 13:56 | 44.37121 | 14.89700 | 36113 ft | 430 kts | 308° |
| 2026-05-04 13:57 | 44.42817 | 14.79973 | 36115 ft | 431 kts | 308° |
| 2026-05-04 13:58 | 44.50387 | 14.66994 | 36115 ft | 431 kts | 308° |
| 2026-05-04 13:58 | 44.56075 | 14.57204 | 36112 ft | 432 kts | 308° |
| 2026-05-04 13:59 | 44.59870 | 14.50653 | 36113 ft | 432 kts | 308° |
| 2026-05-04 14:00 | 44.65562 | 14.40798 | 36112 ft | 433 kts | 308° |
| 2026-05-04 14:00 | 44.71225 | 14.30959 | 36115 ft | 434 kts | 307° |
| 2026-05-04 14:01 | 44.75023 | 14.24343 | 36118 ft | 434 kts | 307° |
| 2026-05-04 14:02 | 44.80710 | 14.14406 | 36120 ft | 434 kts | 307° |
| 2026-05-04 14:02 | 44.84499 | 14.07766 | 36130 ft | 435 kts | 307° |
| 2026-05-04 14:03 | 44.88262 | 14.01155 | 36136 ft | 435 kts | 307° |
| 2026-05-04 14:03 | 44.92048 | 13.94489 | 36132 ft | 435 kts | 307° |
| 2026-05-04 14:04 | 44.97728 | 13.84460 | 36131 ft | 436 kts | 307° |
| 2026-05-04 14:04 | 45.01496 | 13.77788 | 36123 ft | 437 kts | 307° |
| 2026-05-04 14:05 | 45.07175 | 13.67701 | 36111 ft | 437 kts | 307° |
| 2026-05-04 14:06 | 45.10966 | 13.60946 | 36095 ft | 437 kts | 307° |
| 2026-05-04 14:06 | 45.14749 | 13.54191 | 36091 ft | 437 kts | 306° |
| 2026-05-04 14:07 | 45.18525 | 13.47431 | 36086 ft | 437 kts | 306° |
| 2026-05-04 14:07 | 45.22278 | 13.40698 | 36081 ft | 437 kts | 306° |
| 2026-05-04 14:08 | 45.26042 | 13.33927 | 36077 ft | 437 kts | 306° |
| 2026-05-04 14:08 | 45.29808 | 13.27138 | 36078 ft | 437 kts | 306° |
| 2026-05-04 14:09 | 45.35682 | 13.17299 | 36072 ft | 437 kts | 310° |
| 2026-05-04 14:10 | 45.41759 | 13.07608 | 36069 ft | 437 kts | 309° |
| 2026-05-04 14:10 | 45.45776 | 13.01104 | 36062 ft | 437 kts | 310° |
| 2026-05-04 14:11 | 45.50250 | 12.95205 | 36068 ft | 439 kts | 317° |
| 2026-05-04 14:11 | 45.57317 | 12.86839 | 36060 ft | 440 kts | 317° |
| 2026-05-04 14:12 | 45.61971 | 12.81242 | 36055 ft | 440 kts | 317° |
| 2026-05-04 14:13 | 45.68964 | 12.72714 | 36051 ft | 441 kts | 317° |
| 2026-05-04 14:13 | 45.73626 | 12.67000 | 36061 ft | 441 kts | 317° |
| 2026-05-04 14:14 | 45.78290 | 12.61272 | 36067 ft | 442 kts | 317° |
| 2026-05-04 14:14 | 45.85290 | 12.52652 | 36081 ft | 442 kts | 317° |
| 2026-05-04 14:15 | 45.94602 | 12.41141 | 36083 ft | 443 kts | 317° |
| 2026-05-04 14:16 | 46.01607 | 12.32447 | 36080 ft | 444 kts | 316° |
| 2026-05-04 14:17 | 46.08613 | 12.23721 | 36063 ft | 445 kts | 316° |
| 2026-05-04 14:18 | 46.15633 | 12.14946 | 36057 ft | 445 kts | 316° |
| 2026-05-04 14:19 | 46.24961 | 12.03239 | 36065 ft | 445 kts | 316° |
| 2026-05-04 14:19 | 46.29630 | 11.97359 | 36050 ft | 445 kts | 316° |
| 2026-05-04 14:20 | 46.33506 | 11.92466 | 36054 ft | 444 kts | 316° |
| 2026-05-04 14:20 | 46.38161 | 11.86578 | 36057 ft | 444 kts | 316° |
| 2026-05-04 14:21 | 46.45188 | 11.77819 | 36025 ft | 444 kts | 319° |
| 2026-05-04 14:21 | 46.50062 | 11.72308 | 36036 ft | 444 kts | 320° |
| 2026-05-04 14:22 | 46.54952 | 11.66804 | 36012 ft | 444 kts | 319° |
| 2026-05-04 14:22 | 46.59813 | 11.61253 | 36014 ft | 444 kts | 319° |
| 2026-05-04 14:23 | 46.67067 | 11.52888 | 36015 ft | 445 kts | 319° |
| 2026-05-04 14:24 | 46.71922 | 11.47271 | 36016 ft | 446 kts | 319° |
| 2026-05-04 14:24 | 46.76778 | 11.41643 | 36015 ft | 446 kts | 319° |
| 2026-05-04 14:25 | 46.81635 | 11.36000 | 36028 ft | 447 kts | 319° |
| 2026-05-04 14:25 | 46.88933 | 11.27494 | 36018 ft | 447 kts | 319° |
| 2026-05-04 14:26 | 46.93769 | 11.21843 | 36010 ft | 448 kts | 319° |
| 2026-05-04 14:26 | 46.98739 | 11.16321 | 36007 ft | 449 kts | 321° |
| 2026-05-04 14:27 | 47.03845 | 11.11026 | 35996 ft | 449 kts | 322° |
| 2026-05-04 14:27 | 47.08941 | 11.05717 | 35980 ft | 449 kts | 321° |
| 2026-05-04 14:28 | 47.14022 | 11.00349 | 35986 ft | 450 kts | 321° |
| 2026-05-04 14:28 | 47.19093 | 10.94954 | 35993 ft | 450 kts | 321° |
| 2026-05-04 14:29 | 47.29214 | 10.84137 | 35988 ft | 451 kts | 321° |
| 2026-05-04 14:30 | 47.34286 | 10.78701 | 35991 ft | 450 kts | 321° |
| 2026-05-04 14:31 | 47.41869 | 10.70546 | 35997 ft | 450 kts | 321° |
| 2026-05-04 14:32 | 47.51948 | 10.59663 | 35990 ft | 448 kts | 321° |
| 2026-05-04 14:32 | 47.56974 | 10.54214 | 35995 ft | 446 kts | 321° |
| 2026-05-04 14:33 | 47.61961 | 10.48795 | 35986 ft | 447 kts | 321° |
| 2026-05-04 14:33 | 47.66970 | 10.43339 | 35983 ft | 447 kts | 321° |